createdAt,value
2022-09-13T00:00:18.277Z,21.38
2022-09-13T00:01:18.382Z,21.27
2022-09-13T00:02:18.470Z,20.89
2022-09-13T00:03:18.524Z,20.95
2022-09-13T00:04:18.592Z,20.89
2022-09-13T00:05:18.674Z,21.38
2022-09-13T00:06:18.792Z,20.95
2022-09-13T00:07:18.803Z,20.89
2022-09-13T00:08:18.899Z,20.95
2022-09-13T00:09:18.947Z,20.95
2022-09-13T00:10:19.048Z,20.84
2022-09-13T00:11:19.092Z,21.22
2022-09-13T00:12:19.205Z,20.95
2022-09-13T00:13:19.277Z,20.95
2022-09-13T00:14:19.339Z,21.38
2022-09-13T00:15:19.405Z,20.89
2022-09-13T00:16:19.542Z,21.38
2022-09-13T00:17:19.584Z,20.95
2022-09-13T00:18:19.683Z,20.95
2022-09-13T00:19:19.721Z,20.95
2022-09-13T00:20:19.789Z,21.27
2022-09-13T00:21:19.872Z,21.00
2022-09-13T00:22:19.942Z,20.89
2022-09-13T00:23:20.023Z,20.89
2022-09-13T00:24:20.110Z,21.32
2022-09-13T00:25:20.203Z,21.00
2022-09-13T00:26:20.276Z,21.05
2022-09-13T00:27:20.347Z,20.95
2022-09-13T00:28:20.460Z,20.95
2022-09-13T00:29:20.506Z,21.27
2022-09-13T00:30:20.613Z,21.32
2022-09-13T00:31:20.690Z,21.27
2022-09-13T00:32:20.747Z,20.89
2022-09-13T00:33:20.838Z,21.38
2022-09-13T00:34:20.915Z,21.32
2022-09-13T00:35:20.992Z,21.32
2022-09-13T00:36:21.073Z,20.95
2022-09-13T00:37:21.148Z,21.32
2022-09-13T00:38:21.272Z,21.32
2022-09-13T00:39:21.309Z,20.89
2022-09-13T00:40:21.443Z,20.89
2022-09-13T00:41:21.474Z,21.38
2022-09-13T00:42:21.560Z,20.95
2022-09-13T00:43:21.644Z,21.38
2022-09-13T00:44:21.717Z,21.27
2022-09-13T00:45:21.822Z,21.27
2022-09-13T00:46:21.863Z,20.95
2022-09-13T00:47:21.944Z,21.32
2022-09-13T00:48:22.024Z,20.89
2022-09-13T00:49:22.112Z,21.32
2022-09-13T00:50:22.188Z,20.95
2022-09-13T00:51:22.256Z,21.32
2022-09-13T00:52:22.348Z,20.95
2022-09-13T00:53:22.407Z,20.89
2022-09-13T00:54:22.523Z,20.89
2022-09-13T00:55:22.591Z,21.32
2022-09-13T00:56:22.645Z,20.89
2022-09-13T00:57:22.736Z,21.32
2022-09-13T00:58:22.812Z,20.89
2022-09-13T00:59:22.889Z,21.32
2022-09-13T01:00:22.965Z,21.27
2022-09-13T01:01:23.077Z,20.89
2022-09-13T01:02:23.196Z,21.27
2022-09-13T01:03:23.214Z,20.89
2022-09-13T01:04:23.278Z,21.32
2022-09-13T01:05:23.352Z,20.89
2022-09-13T01:06:23.432Z,21.32
2022-09-13T01:07:23.511Z,20.89
2022-09-13T01:08:23.628Z,20.89
2022-09-13T01:09:23.681Z,21.32
2022-09-13T01:10:23.769Z,21.27
2022-09-13T01:11:23.836Z,20.95
2022-09-13T01:12:23.924Z,20.95
2022-09-13T01:13:23.998Z,21.32
2022-09-13T01:14:24.085Z,20.95
2022-09-13T01:15:24.169Z,20.89
2022-09-13T01:16:24.312Z,20.89
2022-09-13T01:17:24.342Z,20.89
2022-09-13T01:18:24.423Z,20.89
2022-09-13T01:19:24.513Z,21.32
2022-09-13T01:20:24.592Z,21.27
2022-09-13T01:21:24.664Z,21.00
2022-09-13T01:22:24.749Z,20.95
2022-09-13T01:23:24.830Z,20.95
2022-09-13T01:24:24.903Z,20.89
2022-09-13T01:25:24.982Z,21.27
2022-09-13T01:26:25.051Z,21.00
2022-09-13T01:27:25.132Z,20.89
2022-09-13T01:28:25.209Z,20.95
2022-09-13T01:29:25.286Z,21.00
2022-09-13T01:30:25.356Z,20.89
2022-09-13T01:31:25.544Z,20.95
2022-09-13T01:32:25.550Z,20.89
2022-09-13T01:33:25.635Z,20.95
2022-09-13T01:34:25.703Z,20.89
2022-09-13T01:35:25.773Z,20.89
2022-09-13T01:36:25.845Z,20.95
2022-09-13T01:37:25.936Z,20.89
2022-09-13T01:38:26.022Z,20.95
2022-09-13T01:39:26.090Z,20.95
2022-09-13T01:40:26.158Z,20.95
2022-09-13T01:41:26.259Z,20.89
2022-09-13T01:42:26.313Z,20.89
2022-09-13T01:43:26.395Z,20.95
2022-09-13T01:44:26.465Z,20.89
2022-09-13T01:45:26.622Z,20.89
2022-09-13T01:46:26.607Z,20.89
2022-09-13T01:47:26.688Z,21.00
2022-09-13T01:48:26.767Z,20.89
2022-09-13T01:49:26.837Z,20.95
2022-09-13T01:50:26.932Z,20.95
2022-09-13T01:51:27.026Z,21.32
2022-09-13T01:52:27.070Z,20.57
2022-09-13T01:53:27.144Z,20.95
2022-09-13T01:54:27.220Z,20.89
2022-09-13T01:55:27.316Z,20.95
2022-09-13T01:56:27.392Z,20.95
2022-09-13T01:57:27.479Z,20.89
2022-09-13T01:58:27.573Z,20.89
2022-09-13T01:59:27.611Z,20.95
2022-09-13T02:00:27.691Z,20.95
2022-09-13T02:01:27.836Z,20.95
2022-09-13T02:02:27.933Z,20.89
2022-09-13T02:03:27.931Z,20.52
2022-09-13T02:04:28.011Z,20.52
2022-09-13T02:05:28.096Z,20.57
2022-09-13T02:06:28.169Z,21.27
2022-09-13T02:07:28.244Z,20.95
2022-09-13T02:08:28.313Z,20.52
2022-09-13T02:09:28.383Z,21.00
2022-09-13T02:10:28.482Z,20.57
2022-09-13T02:11:28.552Z,20.57
2022-09-13T02:12:28.634Z,21.00
2022-09-13T02:13:28.712Z,20.95
2022-09-13T02:14:28.794Z,20.52
2022-09-13T02:15:28.889Z,21.00
2022-09-13T02:16:28.980Z,20.95
2022-09-13T02:17:29.050Z,20.46
2022-09-13T02:18:29.127Z,20.52
2022-09-13T02:19:29.202Z,20.52
2022-09-13T02:20:29.288Z,20.57
2022-09-13T02:21:29.362Z,20.52
2022-09-13T02:22:29.438Z,20.89
2022-09-13T02:23:29.507Z,20.95
2022-09-13T02:24:29.578Z,20.89
2022-09-13T02:25:29.671Z,20.84
2022-09-13T02:26:29.739Z,20.52
2022-09-13T02:27:29.816Z,20.52
2022-09-13T02:28:29.895Z,20.57
2022-09-13T02:29:29.980Z,20.95
2022-09-13T02:30:30.049Z,20.95
2022-09-13T02:31:30.195Z,20.57
2022-09-13T02:32:30.225Z,20.52
2022-09-13T02:33:30.292Z,20.52
2022-09-13T02:34:30.369Z,20.89
2022-09-13T02:35:30.444Z,20.89
2022-09-13T02:36:30.511Z,20.95
2022-09-13T02:37:30.593Z,20.52
2022-09-13T02:38:30.694Z,20.62
2022-09-13T02:39:30.750Z,20.57
2022-09-13T02:40:30.824Z,20.52
2022-09-13T02:41:30.900Z,20.89
2022-09-13T02:42:30.972Z,20.89
2022-09-13T02:43:31.044Z,20.89
2022-09-13T02:44:31.143Z,20.57
2022-09-13T02:45:31.224Z,20.57
2022-09-13T02:46:31.281Z,20.52
2022-09-13T02:47:31.356Z,20.57
2022-09-13T02:48:32.418Z,20.52
2022-09-13T02:49:31.504Z,20.52
2022-09-13T02:50:31.618Z,20.52
2022-09-13T02:51:31.659Z,20.52
2022-09-13T02:52:31.728Z,20.95
2022-09-13T02:53:31.817Z,20.46
2022-09-13T02:54:31.916Z,20.52
2022-09-13T02:55:31.989Z,20.89
2022-09-13T02:56:32.069Z,20.68
2022-09-13T02:57:32.145Z,20.89
2022-09-13T02:58:32.225Z,20.52
2022-09-13T02:59:32.326Z,20.95
2022-09-13T03:00:32.374Z,20.84
2022-09-13T03:01:32.490Z,20.52
2022-09-13T03:02:32.593Z,20.89
2022-09-13T03:03:32.606Z,20.57
2022-09-13T03:04:32.703Z,20.89
2022-09-13T03:05:32.785Z,20.57
2022-09-13T03:06:32.860Z,20.52
2022-09-13T03:07:32.972Z,20.52
2022-09-13T03:08:33.066Z,20.89
2022-09-13T03:09:33.147Z,20.57
2022-09-13T03:10:33.196Z,20.57
2022-09-13T03:11:33.284Z,20.52
2022-09-13T03:12:33.352Z,20.52
2022-09-13T03:13:33.473Z,20.52
2022-09-13T03:14:33.535Z,20.95
2022-09-13T03:15:33.605Z,20.52
2022-09-13T03:16:33.749Z,20.57
2022-09-13T03:17:33.754Z,20.57
2022-09-13T03:18:33.849Z,20.52
2022-09-13T03:19:33.936Z,20.57
2022-09-13T03:20:33.979Z,20.95
2022-09-13T03:21:34.058Z,20.52
2022-09-13T03:22:34.134Z,20.46
2022-09-13T03:23:34.214Z,20.57
2022-09-13T03:24:34.309Z,20.95
2022-09-13T03:25:34.386Z,20.52
2022-09-13T03:26:34.498Z,20.95
2022-09-13T03:27:34.554Z,20.52
2022-09-13T03:28:34.631Z,20.52
2022-09-13T03:29:34.726Z,20.57
2022-09-13T03:30:34.771Z,20.52
2022-09-13T03:31:34.922Z,20.52
2022-09-13T03:32:34.960Z,20.46
2022-09-13T03:33:35.037Z,20.52
2022-09-13T03:34:35.137Z,21.32
2022-09-13T03:35:35.181Z,20.52
2022-09-13T03:36:35.261Z,20.52
2022-09-13T03:37:35.331Z,20.46
2022-09-13T03:38:35.411Z,20.52
2022-09-13T03:39:35.525Z,20.89
2022-09-13T03:40:35.566Z,20.57
2022-09-13T03:41:35.646Z,20.95
2022-09-13T03:42:35.723Z,21.32
2022-09-13T03:43:35.837Z,20.52
2022-09-13T03:44:35.897Z,20.62
2022-09-13T03:45:35.986Z,20.57
2022-09-13T03:46:36.041Z,20.52
2022-09-13T03:47:36.119Z,20.57
2022-09-13T03:48:36.190Z,20.52
2022-09-13T03:49:36.319Z,20.52
2022-09-13T03:50:36.352Z,20.57
2022-09-13T03:51:36.428Z,20.52
2022-09-13T03:52:36.500Z,20.57
2022-09-13T03:53:36.582Z,20.57
2022-09-13T03:54:36.672Z,20.62
2022-09-13T03:55:36.761Z,20.52
2022-09-13T03:56:36.842Z,20.52
2022-09-13T03:57:36.926Z,20.57
2022-09-13T03:58:37.060Z,20.52
2022-09-13T03:59:37.097Z,20.52
2022-09-13T04:00:37.164Z,20.57
2022-09-13T04:01:37.236Z,20.52
2022-09-13T04:02:37.340Z,20.52
2022-09-13T04:03:37.405Z,20.52
2022-09-13T04:04:37.474Z,20.57
2022-09-13T04:05:37.564Z,20.57
2022-09-13T04:06:37.623Z,20.52
2022-09-13T04:07:37.702Z,20.95
2022-09-13T04:08:37.782Z,20.73
2022-09-13T04:09:37.853Z,20.52
2022-09-13T04:10:37.939Z,20.52
2022-09-13T04:11:38.018Z,20.52
2022-09-13T04:12:38.091Z,20.52
2022-09-13T04:13:38.177Z,20.57
2022-09-13T04:14:38.269Z,20.52
2022-09-13T04:15:38.328Z,20.57
2022-09-13T04:16:38.501Z,20.89
2022-09-13T04:17:38.495Z,20.52
2022-09-13T04:18:38.608Z,20.57
2022-09-13T04:19:38.654Z,20.57
2022-09-13T04:20:38.722Z,20.95
2022-09-13T04:21:38.806Z,20.52
2022-09-13T04:22:38.883Z,20.52
2022-09-13T04:23:38.967Z,20.46
2022-09-13T04:24:39.047Z,20.57
2022-09-13T04:25:39.123Z,20.62
2022-09-13T04:26:39.196Z,20.52
2022-09-13T04:27:39.274Z,20.57
2022-09-13T04:28:39.351Z,20.57
2022-09-13T04:29:39.423Z,20.52
2022-09-13T04:30:42.628Z,20.95
2022-09-13T04:31:39.627Z,20.57
2022-09-13T04:32:39.661Z,20.57
2022-09-13T04:33:39.750Z,20.89
2022-09-13T04:34:39.813Z,20.52
2022-09-13T04:35:39.890Z,20.57
2022-09-13T04:36:39.987Z,20.52
2022-09-13T04:37:40.053Z,20.52
2022-09-13T04:38:40.151Z,20.52
2022-09-13T04:39:40.292Z,20.46
2022-09-13T04:40:40.323Z,20.52
2022-09-13T04:41:40.396Z,20.57
2022-09-13T04:42:40.488Z,20.52
2022-09-13T04:43:40.571Z,20.52
2022-09-13T04:44:40.649Z,20.52
2022-09-13T04:45:40.769Z,20.62
2022-09-13T04:46:40.822Z,20.52
2022-09-13T04:47:40.915Z,20.52
2022-09-13T04:48:40.968Z,20.95
2022-09-13T04:49:41.034Z,20.52
2022-09-13T04:50:41.116Z,20.46
2022-09-13T04:51:41.180Z,20.52
2022-09-13T04:52:41.250Z,20.52
2022-09-13T04:53:41.363Z,20.52
2022-09-13T04:54:41.434Z,20.62
2022-09-13T04:55:41.511Z,20.52
2022-09-13T04:56:41.591Z,20.09
2022-09-13T04:57:41.661Z,20.57
2022-09-13T04:58:41.751Z,20.52
2022-09-13T04:59:41.837Z,20.52
2022-09-13T05:00:41.928Z,20.89
2022-09-13T05:01:42.165Z,20.62
2022-09-13T05:02:42.032Z,20.52
2022-09-13T05:03:42.123Z,20.68
2022-09-13T05:04:42.196Z,20.46
2022-09-13T05:05:42.267Z,20.52
2022-09-13T05:06:42.348Z,20.14
2022-09-13T05:07:42.452Z,20.62
2022-09-13T05:08:42.547Z,20.52
2022-09-13T05:09:42.583Z,20.57
2022-09-13T05:10:42.666Z,20.52
2022-09-13T05:11:42.743Z,20.57
2022-09-13T05:12:42.807Z,20.20
2022-09-13T05:13:42.909Z,20.52
2022-09-13T05:14:43.035Z,20.52
2022-09-13T05:15:43.129Z,20.57
2022-09-13T05:16:43.138Z,20.57
2022-09-13T05:17:43.229Z,20.57
2022-09-13T05:18:45.385Z,20.57
2022-09-13T05:19:43.400Z,20.52
2022-09-13T05:20:43.462Z,20.57
2022-09-13T05:21:43.552Z,20.52
2022-09-13T05:22:43.612Z,20.62
2022-09-13T05:23:43.715Z,20.57
2022-09-13T05:24:43.758Z,20.52
2022-09-13T05:25:43.857Z,20.57
2022-09-13T05:26:43.925Z,20.57
2022-09-13T05:27:44.027Z,20.89
2022-09-13T05:28:44.143Z,20.57
2022-09-13T05:29:44.183Z,20.57
2022-09-13T05:30:44.264Z,20.89
2022-09-13T05:31:44.381Z,20.57
2022-09-13T05:32:44.409Z,20.57
2022-09-13T05:33:44.498Z,21.00
2022-09-13T05:34:44.551Z,20.57
2022-09-13T05:35:44.625Z,20.95
2022-09-13T05:36:44.740Z,20.57
2022-09-13T05:37:44.787Z,20.95
2022-09-13T05:38:44.879Z,20.14
2022-09-13T05:40:09.842Z,20.89
2022-09-13T05:40:45.060Z,20.57
2022-09-13T05:41:45.115Z,20.52
2022-09-13T05:42:45.195Z,20.95
2022-09-13T05:43:45.297Z,20.95
2022-09-13T05:44:45.349Z,20.95
2022-09-13T05:45:45.423Z,20.89
2022-09-13T05:46:45.530Z,20.52
2022-09-13T05:47:45.608Z,21.00
2022-09-13T05:48:45.743Z,21.00
2022-09-13T05:50:08.875Z,20.89
2022-09-13T05:50:57.830Z,20.95
2022-09-13T05:51:45.972Z,20.52
2022-09-13T05:52:45.994Z,21.00
2022-09-13T05:53:46.067Z,20.95
2022-09-13T05:54:46.143Z,20.95
2022-09-13T05:55:46.216Z,20.52
2022-09-13T05:56:46.283Z,20.89
2022-09-13T05:57:46.356Z,20.89
2022-09-13T05:58:46.594Z,20.57
2022-09-13T05:59:46.548Z,20.52
2022-09-13T06:00:46.621Z,20.57
2022-09-13T06:01:46.773Z,20.57
2022-09-13T06:02:46.831Z,20.95
2022-09-13T06:03:46.867Z,20.57
2022-09-13T06:04:46.980Z,20.57
2022-09-13T06:05:47.027Z,20.57
2022-09-13T06:06:47.141Z,20.57
2022-09-13T06:07:47.173Z,20.57
2022-09-13T06:08:47.264Z,20.95
2022-09-13T06:09:47.331Z,20.52
2022-09-13T06:10:47.405Z,20.52
2022-09-13T06:11:47.512Z,20.52
2022-09-13T06:12:47.608Z,20.89
2022-09-13T06:13:47.629Z,20.57
2022-09-13T06:14:47.699Z,20.52
2022-09-13T06:15:47.779Z,20.95
2022-09-13T06:16:47.850Z,20.95
2022-09-13T06:17:47.935Z,20.57
2022-09-13T06:18:48.163Z,20.95
2022-09-13T06:19:48.109Z,20.95
2022-09-13T06:20:48.179Z,20.52
2022-09-13T06:21:48.242Z,20.46
2022-09-13T06:22:48.320Z,20.52
2022-09-13T06:23:48.411Z,20.52
2022-09-13T06:24:48.523Z,20.52
2022-09-13T06:25:48.574Z,20.57
2022-09-13T06:26:48.653Z,20.52
2022-09-13T06:27:50.106Z,20.89
2022-09-13T06:28:49.047Z,20.52
2022-09-13T06:29:48.951Z,20.46
2022-09-13T06:30:48.934Z,20.95
2022-09-13T06:31:49.014Z,20.95
2022-09-13T06:32:49.083Z,20.89
2022-09-13T06:33:49.179Z,20.95
2022-09-13T06:34:49.247Z,20.89
2022-09-13T06:35:49.335Z,20.95
2022-09-13T06:36:49.420Z,20.52
2022-09-13T06:37:49.474Z,20.89
2022-09-13T06:38:49.713Z,20.95
2022-09-13T06:39:49.720Z,20.95
2022-09-13T06:40:49.731Z,20.89
2022-09-13T06:41:49.806Z,20.95
2022-09-13T06:42:49.880Z,20.52
2022-09-13T06:43:49.960Z,20.95
2022-09-13T06:44:50.043Z,20.95
2022-09-13T06:45:50.135Z,20.52
2022-09-13T06:46:50.193Z,20.62
2022-09-13T06:47:50.270Z,20.84
2022-09-13T06:48:50.457Z,20.95
2022-09-13T06:49:50.418Z,20.52
2022-09-13T06:50:50.500Z,20.52
2022-09-13T06:51:50.585Z,20.57
2022-09-13T06:52:50.657Z,20.52
2022-09-13T06:53:50.740Z,20.89
2022-09-13T06:54:50.797Z,20.52
2022-09-13T06:55:50.864Z,20.57
2022-09-13T06:56:50.948Z,20.52
2022-09-13T06:57:51.015Z,20.89
2022-09-13T06:58:51.121Z,20.89
2022-09-13T06:59:51.160Z,20.68
2022-09-13T07:00:55.958Z,20.95
2022-09-13T07:01:51.359Z,20.95
2022-09-13T07:02:51.390Z,20.95
2022-09-13T07:03:51.467Z,20.52
2022-09-13T07:04:51.542Z,20.89
2022-09-13T07:05:51.647Z,20.52
2022-09-13T07:06:51.715Z,20.52
2022-09-13T07:07:51.770Z,20.89
2022-09-13T07:08:51.858Z,20.52
2022-09-13T07:09:51.939Z,20.95
2022-09-13T07:10:52.011Z,20.95
2022-09-13T07:11:52.080Z,20.95
2022-09-13T07:12:52.166Z,20.57
2022-09-13T07:13:52.240Z,20.57
2022-09-13T07:14:52.324Z,20.57
2022-09-13T07:15:52.455Z,20.57
2022-09-13T07:16:52.464Z,20.46
2022-09-13T07:17:52.565Z,20.52
2022-09-13T07:18:52.665Z,20.52
2022-09-13T07:19:52.709Z,20.52
2022-09-13T07:20:52.785Z,20.89
2022-09-13T07:21:52.854Z,20.52
2022-09-13T07:22:52.935Z,20.52
2022-09-13T07:23:53.022Z,20.62
2022-09-13T07:24:53.086Z,20.52
2022-09-13T07:25:53.153Z,20.89
2022-09-13T07:26:53.228Z,20.52
2022-09-13T07:27:53.316Z,20.84
2022-09-13T07:28:53.403Z,20.89
2022-09-13T07:29:53.449Z,20.62
2022-09-13T07:30:53.614Z,20.57
2022-09-13T07:31:53.595Z,20.52
2022-09-13T07:32:53.689Z,20.89
2022-09-13T07:33:53.762Z,20.95
2022-09-13T07:34:53.830Z,20.52
2022-09-13T07:35:53.923Z,20.57
2022-09-13T07:36:53.995Z,20.89
2022-09-13T07:37:54.082Z,20.46
2022-09-13T07:38:54.152Z,20.95
2022-09-13T07:39:54.274Z,20.52
2022-09-13T07:40:54.302Z,20.62
2022-09-13T07:41:54.370Z,20.95
2022-09-13T07:42:54.458Z,20.95
2022-09-13T07:43:54.534Z,20.57
2022-09-13T07:44:54.629Z,20.52
2022-09-13T07:45:54.702Z,20.57
2022-09-13T07:46:54.752Z,20.57
2022-09-13T07:47:54.849Z,20.57
2022-09-13T07:48:54.935Z,20.57
2022-09-13T07:49:54.986Z,20.52
2022-09-13T07:50:55.079Z,20.52
2022-09-13T07:51:55.148Z,20.52
2022-09-13T07:52:55.270Z,20.57
2022-09-13T07:53:57.452Z,20.57
2022-09-13T07:54:55.446Z,20.52
2022-09-13T07:55:55.479Z,20.57
2022-09-13T07:56:55.570Z,20.52
2022-09-13T07:57:55.641Z,20.52
2022-09-13T07:58:55.703Z,20.52
2022-09-13T07:59:55.798Z,20.57
2022-09-13T08:00:55.880Z,20.52
2022-09-13T08:01:56.144Z,20.57
2022-09-13T08:02:56.068Z,20.57
2022-09-13T08:03:56.110Z,20.46
2022-09-13T08:04:56.274Z,20.52
2022-09-13T08:05:56.259Z,20.57
2022-09-13T08:06:56.351Z,20.57
2022-09-13T08:07:56.434Z,20.57
2022-09-13T08:08:56.513Z,20.52
2022-09-13T08:09:56.590Z,20.52
2022-09-13T08:10:56.709Z,20.52
2022-09-13T08:11:56.742Z,20.57
2022-09-13T08:12:56.843Z,20.57
2022-09-13T08:13:56.913Z,20.52
2022-09-13T08:14:57.002Z,20.52
2022-09-13T08:15:57.091Z,20.52
2022-09-13T08:16:57.174Z,20.57
2022-09-13T08:17:57.235Z,20.57
2022-09-13T08:18:57.305Z,20.52
2022-09-13T08:19:57.396Z,20.57
2022-09-13T08:20:57.475Z,20.57
2022-09-13T08:21:57.553Z,20.52
2022-09-13T08:22:57.647Z,20.57
2022-09-13T08:23:57.697Z,20.57
2022-09-13T08:24:57.812Z,20.52
2022-09-13T08:25:57.867Z,20.52
2022-09-13T08:26:57.950Z,20.52
2022-09-13T08:27:58.033Z,20.57
2022-09-13T08:28:58.110Z,20.57
2022-09-13T08:29:58.192Z,20.52
2022-09-13T08:30:58.333Z,20.52
2022-09-13T08:31:58.346Z,20.52
2022-09-13T08:32:58.439Z,20.52
2022-09-13T08:33:58.515Z,20.62
2022-09-13T08:34:58.595Z,20.52
2022-09-13T08:35:58.675Z,20.57
2022-09-13T08:36:58.748Z,20.14
2022-09-13T08:37:58.842Z,20.14
2022-09-13T08:38:58.895Z,20.52
2022-09-13T08:39:59.015Z,20.57
2022-09-13T08:40:59.067Z,20.57
2022-09-13T08:41:59.127Z,20.52
2022-09-13T08:42:59.227Z,20.57
2022-09-13T08:43:59.320Z,20.20
2022-09-13T08:44:59.362Z,20.57
2022-09-13T08:45:59.473Z,20.57
2022-09-13T08:46:59.536Z,20.57
2022-09-13T08:47:59.612Z,20.57
2022-09-13T08:48:59.681Z,20.57
2022-09-13T08:49:59.749Z,20.57
2022-09-13T08:50:59.836Z,20.57
2022-09-13T08:51:59.901Z,20.52
2022-09-13T08:53:00.005Z,20.52
2022-09-13T08:54:00.083Z,20.14
2022-09-13T08:55:00.202Z,20.57
2022-09-13T08:56:00.259Z,20.52
2022-09-13T08:57:00.338Z,20.52
2022-09-13T08:58:00.421Z,20.57
2022-09-13T08:59:00.495Z,20.52
2022-09-13T09:00:00.566Z,20.52
2022-09-13T09:01:00.688Z,20.14
2022-09-13T09:02:00.712Z,20.52
2022-09-13T09:03:00.821Z,20.52
2022-09-13T09:04:00.867Z,20.57
2022-09-13T09:05:00.983Z,20.52
2022-09-13T09:06:01.026Z,20.57
2022-09-13T09:07:01.099Z,20.52
2022-09-13T09:08:01.237Z,20.57
2022-09-13T09:09:01.296Z,20.57
2022-09-13T09:10:01.395Z,20.62
2022-09-13T09:11:01.435Z,20.57
2022-09-13T09:12:01.482Z,20.52
2022-09-13T09:13:01.565Z,20.46
2022-09-13T09:14:01.635Z,20.52
2022-09-13T09:15:01.731Z,20.52
2022-09-13T09:16:01.875Z,20.52
2022-09-13T09:17:01.892Z,20.52
2022-09-13T09:18:01.981Z,20.57
2022-09-13T09:19:02.067Z,20.52
2022-09-13T09:20:02.136Z,20.57
2022-09-13T09:21:02.227Z,20.52
2022-09-13T09:22:02.302Z,20.14
2022-09-13T09:23:02.391Z,20.57
2022-09-13T09:24:02.459Z,20.52
2022-09-13T09:25:02.518Z,20.14
2022-09-13T09:26:02.607Z,20.62
2022-09-13T09:27:02.680Z,20.57
2022-09-13T09:28:02.834Z,20.57
2022-09-13T09:29:02.873Z,20.52
2022-09-13T09:30:02.928Z,20.14
2022-09-13T09:31:03.086Z,20.46
2022-09-13T09:32:03.062Z,20.52
2022-09-13T09:33:03.175Z,20.52
2022-09-13T09:34:03.223Z,20.09
2022-09-13T09:35:03.322Z,20.14
2022-09-13T09:36:03.418Z,20.20
2022-09-13T09:37:03.597Z,20.14
2022-09-13T09:38:03.551Z,20.20
2022-09-13T09:39:03.638Z,20.20
2022-09-13T09:40:03.773Z,20.57
2022-09-13T09:41:03.809Z,20.52
2022-09-13T09:42:03.912Z,20.52
2022-09-13T09:43:03.998Z,20.57
2022-09-13T09:44:04.035Z,20.52
2022-09-13T09:45:04.136Z,20.57
2022-09-13T09:46:04.294Z,20.52
2022-09-13T09:47:04.313Z,20.57
2022-09-13T09:48:04.409Z,20.52
2022-09-13T09:49:04.485Z,20.52
2022-09-13T09:50:04.570Z,20.57
2022-09-13T09:51:04.672Z,20.57
2022-09-13T09:52:04.719Z,20.14
2022-09-13T09:53:04.813Z,20.57
2022-09-13T09:54:04.867Z,20.57
2022-09-13T09:55:04.952Z,20.57
2022-09-13T09:56:05.022Z,20.52
2022-09-13T09:57:05.111Z,20.14
2022-09-13T09:58:05.204Z,20.09
2022-09-13T09:59:05.290Z,20.14
2022-09-13T10:00:05.359Z,20.14
2022-09-13T10:01:09.501Z,19.82
2022-09-13T10:02:05.520Z,20.20
2022-09-13T10:03:05.577Z,19.77
2022-09-13T10:04:05.650Z,19.77
2022-09-13T10:05:05.740Z,20.09
2022-09-13T10:06:05.820Z,19.77
2022-09-13T10:07:05.910Z,19.71
2022-09-13T10:08:05.988Z,19.77
2022-09-13T10:09:06.065Z,19.71
2022-09-13T10:10:06.138Z,19.77
2022-09-13T10:11:06.239Z,19.77
2022-09-13T10:12:06.306Z,20.20
2022-09-13T10:13:06.408Z,19.82
2022-09-13T10:14:06.498Z,19.77
2022-09-13T10:15:06.552Z,19.77
2022-09-13T10:16:06.634Z,19.82
2022-09-13T10:17:06.715Z,19.77
2022-09-13T10:18:21.163Z,19.77
2022-09-13T10:19:11.047Z,19.77
2022-09-13T10:20:06.948Z,19.82
2022-09-13T10:21:07.032Z,19.82
2022-09-13T10:22:07.107Z,19.82
2022-09-13T10:23:07.191Z,19.60
2022-09-13T10:24:07.274Z,19.77
2022-09-13T10:25:07.348Z,19.82
2022-09-13T10:26:07.445Z,19.71
2022-09-13T10:27:07.527Z,19.71
2022-09-13T10:28:07.635Z,20.14
2022-09-13T10:29:07.698Z,20.14
2022-09-13T10:30:07.768Z,19.77
2022-09-13T10:31:07.892Z,19.77
2022-09-13T10:32:07.933Z,19.77
2022-09-13T10:33:08.032Z,20.14
2022-09-13T10:34:08.100Z,19.82
2022-09-13T10:35:08.156Z,19.71
2022-09-13T10:36:08.302Z,19.82
2022-09-13T10:37:08.301Z,20.20
2022-09-13T10:38:08.398Z,19.77
2022-09-13T10:39:08.444Z,19.77
2022-09-13T10:40:08.589Z,19.87
2022-09-13T10:41:08.611Z,19.77
2022-09-13T10:42:08.692Z,19.77
2022-09-13T10:43:08.780Z,19.82
2022-09-13T10:44:09.834Z,20.14
2022-09-13T10:45:08.919Z,20.14
2022-09-13T10:46:09.098Z,20.20
2022-09-13T10:47:09.085Z,20.14
2022-09-13T10:48:09.177Z,19.77
2022-09-13T10:49:09.264Z,19.77
2022-09-13T10:50:09.336Z,19.77
2022-09-13T10:51:09.418Z,20.14
2022-09-13T10:52:13.920Z,20.14
2022-09-13T10:53:09.571Z,19.77
2022-09-13T10:54:09.652Z,20.14
2022-09-13T10:55:09.753Z,20.14
2022-09-13T10:56:09.822Z,20.20
2022-09-13T10:57:09.907Z,20.14
2022-09-13T10:58:09.981Z,20.14
2022-09-13T10:59:10.060Z,19.82
2022-09-13T11:00:10.153Z,20.14
2022-09-13T11:01:10.273Z,20.20
2022-09-13T11:02:10.343Z,19.77
2022-09-13T11:03:10.392Z,19.71
2022-09-13T11:04:10.630Z,20.20
2022-09-13T11:05:10.537Z,20.14
2022-09-13T11:06:10.621Z,20.14
2022-09-13T11:07:10.717Z,20.14
2022-09-13T11:08:10.794Z,20.14
2022-09-13T11:09:10.874Z,20.20
2022-09-13T11:10:11.039Z,20.20
2022-09-13T11:11:11.038Z,19.77
2022-09-13T11:12:11.117Z,20.09
2022-09-13T11:13:11.186Z,20.20
2022-09-13T11:14:11.265Z,20.20
2022-09-13T11:15:11.342Z,19.77
2022-09-13T11:16:11.510Z,20.14
2022-09-13T11:17:11.511Z,19.82
2022-09-13T11:18:11.565Z,19.82
2022-09-13T11:19:11.652Z,20.14
2022-09-13T11:20:11.749Z,19.87
2022-09-13T11:21:11.813Z,19.77
2022-09-13T11:22:11.922Z,19.77
2022-09-13T11:23:11.951Z,20.14
2022-09-13T11:24:12.039Z,19.77
2022-09-13T11:25:12.112Z,19.77
2022-09-13T11:26:12.238Z,19.77
2022-09-13T11:27:12.294Z,19.82
2022-09-13T11:28:12.382Z,19.82
2022-09-13T11:29:12.454Z,20.20
2022-09-13T11:30:12.562Z,20.14
2022-09-13T11:31:12.613Z,19.77
2022-09-13T11:32:12.777Z,19.77
2022-09-13T11:33:12.801Z,20.14
2022-09-13T11:34:12.856Z,20.20
2022-09-13T11:35:12.907Z,20.20
2022-09-13T11:36:13.005Z,20.14
2022-09-13T11:37:13.088Z,20.14
2022-09-13T11:38:13.129Z,20.14
2022-09-13T11:39:13.204Z,20.14
2022-09-13T11:40:13.434Z,20.20
2022-09-13T11:41:13.360Z,20.20
2022-09-13T11:42:13.469Z,20.14
2022-09-13T11:43:13.540Z,20.57
2022-09-13T11:44:13.625Z,20.52
2022-09-13T11:45:16.153Z,20.52
2022-09-13T11:46:13.843Z,20.52
2022-09-13T11:47:13.904Z,20.52
2022-09-13T11:48:13.996Z,20.20
2022-09-13T11:49:14.030Z,20.14
2022-09-13T11:50:14.156Z,20.20
2022-09-13T11:51:14.181Z,20.52
2022-09-13T11:52:14.277Z,20.57
2022-09-13T11:53:14.358Z,20.52
2022-09-13T11:54:14.427Z,20.57
2022-09-13T11:55:14.500Z,20.57
2022-09-13T11:56:14.578Z,20.57
2022-09-13T11:57:14.676Z,20.57
2022-09-13T11:58:14.729Z,20.14
2022-09-13T11:59:15.747Z,20.14
2022-09-13T12:00:14.893Z,20.52
2022-09-13T12:01:14.973Z,20.52
2022-09-13T12:02:15.226Z,20.09
2022-09-13T12:03:15.261Z,20.57
2022-09-13T12:04:15.259Z,20.14
2022-09-13T12:05:23.712Z,20.57
2022-09-13T12:06:15.417Z,20.46
2022-09-13T12:07:15.464Z,20.14
2022-09-13T12:08:15.538Z,20.57
2022-09-13T12:09:15.618Z,20.57
2022-09-13T12:10:15.706Z,20.52
2022-09-13T12:11:16.316Z,20.09
2022-09-13T12:12:15.861Z,20.57
2022-09-13T12:13:15.917Z,20.14
2022-09-13T12:14:16.011Z,20.52
2022-09-13T12:15:16.087Z,20.57
2022-09-13T12:16:16.252Z,20.20
2022-09-13T12:17:16.267Z,20.52
2022-09-13T12:18:16.345Z,20.14
2022-09-13T12:19:16.426Z,20.57
2022-09-13T12:20:16.509Z,20.52
2022-09-13T12:21:16.608Z,20.57
2022-09-13T12:22:16.693Z,20.57
2022-09-13T12:23:16.789Z,20.52
2022-09-13T12:24:16.882Z,20.52
2022-09-13T12:25:16.937Z,20.57
2022-09-13T12:26:17.025Z,20.14
2022-09-13T12:27:17.106Z,20.57
2022-09-13T12:28:17.198Z,20.52
2022-09-13T12:29:17.276Z,20.52
2022-09-13T12:30:17.332Z,20.57
2022-09-13T12:31:17.491Z,20.57
2022-09-13T12:32:17.487Z,20.52
2022-09-13T12:33:17.555Z,20.62
2022-09-13T12:34:17.642Z,20.73
2022-09-13T12:35:17.723Z,20.57
2022-09-13T12:36:17.815Z,20.57
2022-09-13T12:37:17.892Z,20.52
2022-09-13T12:38:17.966Z,20.62
2022-09-13T12:39:18.039Z,20.57
2022-09-13T12:40:18.150Z,20.52
2022-09-13T12:41:18.184Z,20.57
2022-09-13T12:42:18.296Z,20.52
2022-09-13T12:43:18.339Z,20.57
2022-09-13T12:44:18.416Z,20.52
2022-09-13T12:45:18.497Z,20.57
2022-09-13T12:46:18.573Z,20.52
2022-09-13T12:47:19.595Z,20.52
2022-09-13T12:48:18.715Z,20.52
2022-09-13T12:49:18.790Z,20.52
2022-09-13T12:50:41.825Z,20.52
2022-09-13T12:51:19.010Z,20.57
2022-09-13T12:52:19.033Z,20.57
2022-09-13T12:53:19.105Z,20.62